createdAt,value
2023-05-20T00:00:01.706Z,66.69
2023-05-20T00:02:29.963Z,65.83
2023-05-20T00:04:57.869Z,66.76
2023-05-20T00:07:26.325Z,67.21
2023-05-20T00:09:54.793Z,66.35
2023-05-20T00:12:22.657Z,66.48
2023-05-20T00:14:52.540Z,67.96
2023-05-20T00:17:21.544Z,67.80
2023-05-20T00:19:49.273Z,68.35
2023-05-20T00:22:16.998Z,68.53
2023-05-20T00:24:44.712Z,68.40
2023-05-20T00:27:12.845Z,69.78
2023-05-20T00:29:40.849Z,70.21
2023-05-20T00:32:10.998Z,69.82
2023-05-20T00:34:38.943Z,70.38
2023-05-20T00:37:07.151Z,71.34
2023-05-20T00:39:34.862Z,70.65
2023-05-20T00:42:03.573Z,71.49
2023-05-20T00:44:31.648Z,72.16
2023-05-20T00:46:59.980Z,73.00
2023-05-20T00:49:29.846Z,72.37
2023-05-20T00:51:58.166Z,71.91
2023-05-20T00:54:26.921Z,72.26
2023-05-20T00:56:55.869Z,72.38
2023-05-20T00:59:24.389Z,73.12
2023-05-20T01:01:53.232Z,73.20
2023-05-20T01:04:21.975Z,72.49
2023-05-20T01:06:51.595Z,73.59
2023-05-20T01:09:20.227Z,73.13
2023-05-20T01:11:52.981Z,73.44
2023-05-20T01:14:25.068Z,73.02
2023-05-20T01:16:58.342Z,74.19
2023-05-20T01:19:34.100Z,74.78
2023-05-20T01:22:06.856Z,75.31
2023-05-20T01:24:36.308Z,74.95
2023-05-20T01:27:05.492Z,75.82
2023-05-20T01:29:36.889Z,76.46
2023-05-20T01:32:09.024Z,76.56
2023-05-20T01:34:39.455Z,76.35
2023-05-20T01:37:09.284Z,76.89
2023-05-20T01:39:42.650Z,76.11
2023-05-20T01:42:11.503Z,76.85
2023-05-20T01:44:39.540Z,75.94
2023-05-20T01:47:08.920Z,77.05
2023-05-20T01:49:37.320Z,77.46
2023-05-20T01:52:06.560Z,77.67
2023-05-20T01:54:35.018Z,78.19
2023-05-20T01:57:04.421Z,78.36
2023-05-20T01:59:32.531Z,78.31
2023-05-20T02:02:01.640Z,78.22
2023-05-20T02:04:29.485Z,79.03
2023-05-20T02:06:57.272Z,78.88
2023-05-20T02:09:25.069Z,79.29
2023-05-20T02:11:53.686Z,80.27
2023-05-20T02:14:23.052Z,80.14
2023-05-20T02:16:51.029Z,81.18
2023-05-20T02:19:23.803Z,80.93
2023-05-20T02:21:52.541Z,80.82
2023-05-20T02:24:21.288Z,81.07
2023-05-20T02:26:51.145Z,81.72
2023-05-20T02:29:20.844Z,82.41
2023-05-20T02:31:52.548Z,82.59
2023-05-20T02:34:20.916Z,82.75
2023-05-20T02:36:48.935Z,83.23
2023-05-20T02:39:17.040Z,83.63
2023-05-20T02:41:45.417Z,84.10
2023-05-20T02:44:13.649Z,84.54
2023-05-20T02:46:41.633Z,84.80
2023-05-20T02:49:10.850Z,85.33
2023-05-20T02:51:39.136Z,85.82
2023-05-20T02:54:07.031Z,86.18
2023-05-20T02:56:34.823Z,86.95
2023-05-20T02:59:03.609Z,86.41
2023-05-20T03:01:31.518Z,85.73
2023-05-20T03:03:59.505Z,86.44
2023-05-20T03:06:30.106Z,87.49
2023-05-20T03:08:58.264Z,86.82
2023-05-20T03:11:26.850Z,86.91
2023-05-20T03:13:54.667Z,85.94
2023-05-20T03:16:22.815Z,86.06
2023-05-20T03:18:50.768Z,85.92
2023-05-20T03:21:18.617Z,86.49
2023-05-20T03:23:48.633Z,86.96
2023-05-20T03:26:16.864Z,87.26
2023-05-20T03:28:44.789Z,87.49
2023-05-20T03:31:12.707Z,88.17
2023-05-20T03:33:40.705Z,86.99
2023-05-20T03:36:08.846Z,87.83
2023-05-20T03:38:36.720Z,88.55
2023-05-20T03:41:06.098Z,89.15
2023-05-20T03:43:34.867Z,90.24
2023-05-20T03:46:02.634Z,89.06
2023-05-20T03:48:30.414Z,88.91
2023-05-20T03:50:58.335Z,89.63
2023-05-20T03:53:26.530Z,89.66
2023-05-20T03:55:54.508Z,90.44
2023-05-20T03:58:23.969Z,90.96
2023-05-20T04:00:51.994Z,91.29
2023-05-20T04:03:20.753Z,91.51
2023-05-20T04:05:49.883Z,92.77
2023-05-20T04:08:22.030Z,93.13
2023-05-20T04:10:50.001Z,92.41
2023-05-20T04:13:18.797Z,92.13
2023-05-20T04:15:48.421Z,91.57
2023-05-20T04:18:16.206Z,92.00
2023-05-20T04:20:44.391Z,92.34
2023-05-20T04:23:14.122Z,92.05
2023-05-20T04:25:42.495Z,92.32
2023-05-20T04:28:10.701Z,92.44
2023-05-20T04:30:38.856Z,92.68
2023-05-20T04:33:08.493Z,92.45
2023-05-20T04:35:37.687Z,90.15
2023-05-20T04:38:07.440Z,91.11
2023-05-20T04:40:35.696Z,92.43
2023-05-20T04:43:04.173Z,91.62
2023-05-20T04:45:33.692Z,91.15
2023-05-20T04:48:01.779Z,92.17
2023-05-20T04:50:31.094Z,92.13
2023-05-20T04:52:59.152Z,92.20
2023-05-20T04:55:30.054Z,93.36
2023-05-20T04:57:58.237Z,91.78
2023-05-20T05:00:26.174Z,91.86
2023-05-20T05:02:54.922Z,92.39
2023-05-20T05:05:23.223Z,93.82
2023-05-20T05:07:52.423Z,94.31
2023-05-20T05:10:22.192Z,93.52
2023-05-20T05:12:49.949Z,92.71
2023-05-20T05:15:17.843Z,92.44
2023-05-20T05:17:46.177Z,92.03
2023-05-20T05:20:14.871Z,91.75
2023-05-20T05:22:43.387Z,92.11
2023-05-20T05:25:13.559Z,91.53
2023-05-20T05:27:41.571Z,90.94
2023-05-20T05:30:11.238Z,91.32
2023-05-20T05:32:39.740Z,91.43
2023-05-20T05:35:08.454Z,90.22
2023-05-20T05:37:36.593Z,90.44
2023-05-20T05:40:05.983Z,90.17
2023-05-20T05:42:37.245Z,89.85
2023-05-20T05:45:14.733Z,89.49
2023-05-20T05:47:47.188Z,89.43
2023-05-20T05:50:17.501Z,88.00
2023-05-20T05:52:45.745Z,88.44
2023-05-20T05:55:13.868Z,89.03
2023-05-20T05:57:44.592Z,88.93
2023-05-20T06:00:16.744Z,88.72
2023-05-20T06:02:47.954Z,88.19
2023-05-20T06:05:29.897Z,89.34
2023-05-20T06:07:58.493Z,89.54
2023-05-20T06:10:27.026Z,90.96
2023-05-20T06:12:57.345Z,90.22
2023-05-20T06:15:26.659Z,90.11
2023-05-20T06:17:54.521Z,89.53
2023-05-20T06:20:22.443Z,90.48
2023-05-20T06:22:50.355Z,90.94
2023-05-20T06:25:22.926Z,92.69
2023-05-20T06:27:51.750Z,91.68
2023-05-20T06:30:22.344Z,90.66
2023-05-20T06:32:50.677Z,89.21
2023-05-20T06:35:21.314Z,87.58
2023-05-20T06:37:49.365Z,88.20
2023-05-20T06:40:18.840Z,86.75
2023-05-20T06:42:46.688Z,86.28
2023-05-20T06:45:14.847Z,87.78
2023-05-20T06:47:49.370Z,86.99
2023-05-20T06:50:17.650Z,85.50
2023-05-20T06:52:46.504Z,86.67
2023-05-20T06:55:15.539Z,88.43
2023-05-20T06:57:44.969Z,85.89
2023-05-20T07:00:15.006Z,86.68
2023-05-20T07:02:43.921Z,85.51
2023-05-20T07:05:15.305Z,85.87
2023-05-20T07:07:43.499Z,84.97
2023-05-20T07:10:12.084Z,85.69
2023-05-20T07:12:40.291Z,85.21
2023-05-20T07:15:09.524Z,83.55
2023-05-20T07:17:37.355Z,84.31
2023-05-20T07:20:08.175Z,82.75
2023-05-20T07:22:38.663Z,84.07
2023-05-20T07:25:21.638Z,82.29
2023-05-20T07:27:50.309Z,83.51
2023-05-20T07:30:18.134Z,83.99
2023-05-20T07:32:54.210Z,82.54
2023-05-20T07:35:22.015Z,81.45
2023-05-20T07:37:51.085Z,81.08
2023-05-20T07:40:19.585Z,80.45
2023-05-20T07:42:47.408Z,79.00
2023-05-20T07:45:16.057Z,81.10
2023-05-20T07:47:44.246Z,80.22
2023-05-20T07:50:12.613Z,77.59
2023-05-20T07:52:55.399Z,76.17
2023-05-20T07:55:27.007Z,75.25
2023-05-20T07:57:56.237Z,76.48
2023-05-20T08:00:25.370Z,77.46
2023-05-20T08:02:53.330Z,77.31
2023-05-20T08:05:29.272Z,77.22
2023-05-20T08:08:00.139Z,75.74
2023-05-20T08:10:32.353Z,78.29
2023-05-20T08:13:00.157Z,76.54
2023-05-20T08:15:27.880Z,75.34
2023-05-20T08:17:58.083Z,74.57
2023-05-20T08:20:28.012Z,75.74
2023-05-20T08:22:57.685Z,74.68
2023-05-20T08:25:25.543Z,75.59
2023-05-20T08:27:55.070Z,75.41
2023-05-20T08:30:22.870Z,75.93
2023-05-20T08:32:50.762Z,75.28
2023-05-20T08:35:19.027Z,73.20
2023-05-20T08:37:47.099Z,72.88
2023-05-20T08:40:16.048Z,73.84
2023-05-20T08:42:44.447Z,71.14
2023-05-20T08:45:18.420Z,73.83
2023-05-20T08:47:47.262Z,74.16
2023-05-20T08:50:15.821Z,74.38
2023-05-20T08:52:45.628Z,72.22
2023-05-20T08:55:23.000Z,71.83
2023-05-20T08:57:51.701Z,71.45
2023-05-20T09:00:23.795Z,73.60
2023-05-20T09:02:52.176Z,75.32
2023-05-20T09:05:21.083Z,76.63
2023-05-20T09:07:49.573Z,76.23
2023-05-20T09:10:17.569Z,76.28
2023-05-20T09:12:46.127Z,74.49
2023-05-20T09:15:14.296Z,74.28
2023-05-20T09:17:43.422Z,72.46
2023-05-20T09:20:12.289Z,72.31
2023-05-20T09:22:41.050Z,73.18
2023-05-20T09:25:12.196Z,72.14
2023-05-20T09:27:41.271Z,71.63
2023-05-20T09:30:12.640Z,72.47
2023-05-20T09:32:41.046Z,71.32
2023-05-20T09:35:14.422Z,71.20
2023-05-20T09:37:44.281Z,72.67
2023-05-20T09:40:15.266Z,69.63
2023-05-20T09:42:49.257Z,70.26
2023-05-20T09:45:17.315Z,70.31
2023-05-20T09:47:47.590Z,67.47
2023-05-20T09:50:17.270Z,65.63
2023-05-20T09:52:45.408Z,67.11
2023-05-20T09:55:13.161Z,66.86
2023-05-20T09:57:41.163Z,67.17
2023-05-20T10:00:10.962Z,64.95
2023-05-20T10:02:44.888Z,63.04
2023-05-20T10:05:18.646Z,61.23
2023-05-20T10:08:20.012Z,62.01
2023-05-20T10:10:53.794Z,60.55
2023-05-20T10:13:47.636Z,60.67
2023-05-20T10:16:30.111Z,60.40
2023-05-20T10:19:06.898Z,60.00
2023-05-20T10:21:38.930Z,59.42
2023-05-20T10:24:08.620Z,60.09
2023-05-20T10:26:37.636Z,61.43
2023-05-20T10:29:16.869Z,62.38
2023-05-20T10:31:51.218Z,64.67
2023-05-20T10:34:20.558Z,64.10
2023-05-20T10:37:00.435Z,61.63
2023-05-20T10:39:29.618Z,61.92
2023-05-20T10:42:08.445Z,61.08
2023-05-20T10:44:44.679Z,59.09
2023-05-20T10:49:47.534Z,58.58
2023-05-20T10:52:18.393Z,58.05
2023-05-20T10:54:50.938Z,59.94
2023-05-20T10:57:19.685Z,59.50
2023-05-20T10:59:48.718Z,58.25
2023-05-20T11:02:18.017Z,58.85
2023-05-20T11:04:47.422Z,62.06
2023-05-20T11:07:26.636Z,61.33
2023-05-20T11:09:54.431Z,59.99
2023-05-20T11:12:23.168Z,59.76
2023-05-20T11:14:51.531Z,58.94
2023-05-20T11:17:20.203Z,59.74
2023-05-20T11:19:49.879Z,57.16
2023-05-20T11:22:19.290Z,57.27
2023-05-20T11:24:47.682Z,57.15
2023-05-20T11:27:15.711Z,59.89
2023-05-20T11:29:43.827Z,58.75
2023-05-20T11:32:13.274Z,57.38
2023-05-20T11:34:42.693Z,56.99
2023-05-20T11:37:11.886Z,56.20
2023-05-20T11:39:41.501Z,56.21
2023-05-20T11:42:09.266Z,57.47
2023-05-20T11:44:37.053Z,60.10
2023-05-20T11:47:05.487Z,60.84
2023-05-20T11:49:42.389Z,60.34
2023-05-20T11:52:11.750Z,59.24
2023-05-20T11:54:42.846Z,58.05
2023-05-20T11:57:12.611Z,57.83
2023-05-20T11:59:40.626Z,58.23
2023-05-20T12:02:08.707Z,60.15
2023-05-20T12:04:36.599Z,60.41
2023-05-20T12:07:07.011Z,61.07
2023-05-20T12:09:35.029Z,61.32
2023-05-20T12:12:05.660Z,62.24
2023-05-20T12:14:33.603Z,61.19
2023-05-20T12:17:01.384Z,62.24
2023-05-20T12:19:29.334Z,61.92
2023-05-20T12:21:57.164Z,59.74
2023-05-20T12:24:24.899Z,60.54
2023-05-20T12:26:52.778Z,58.56
2023-05-20T12:29:22.305Z,58.50
2023-05-20T12:31:50.049Z,58.58
2023-05-20T12:34:17.819Z,56.59
2023-05-20T12:36:46.650Z,57.97
2023-05-20T12:39:15.019Z,57.22
2023-05-20T12:41:42.915Z,55.88
2023-05-20T12:44:11.139Z,55.83
2023-05-20T12:46:40.391Z,56.52
2023-05-20T12:49:08.755Z,56.33
2023-05-20T12:51:36.491Z,55.19
2023-05-20T12:54:04.224Z,56.38
2023-05-20T12:56:32.322Z,57.23
2023-05-20T12:59:00.011Z,56.93
2023-05-20T13:01:28.159Z,57.41
2023-05-20T13:03:57.665Z,58.10
2023-05-20T13:06:26.159Z,61.36
2023-05-20T13:08:54.179Z,59.95
2023-05-20T13:11:22.474Z,60.57
2023-05-20T13:13:50.450Z,59.80
2023-05-20T13:16:18.694Z,61.16
2023-05-20T13:18:46.553Z,61.71
2023-05-20T13:21:15.720Z,61.67
2023-05-20T13:23:43.946Z,59.15
2023-05-20T13:26:11.954Z,58.04
2023-05-20T13:28:39.781Z,59.87
2023-05-20T13:31:07.631Z,60.93
2023-05-20T13:33:35.630Z,60.05
2023-05-20T13:36:03.523Z,61.08
2023-05-20T13:38:34.023Z,58.65
2023-05-20T13:41:03.432Z,58.37
2023-05-20T13:43:33.208Z,58.16
2023-05-20T13:46:01.198Z,58.21
2023-05-20T13:48:29.327Z,59.74
2023-05-20T13:50:57.395Z,61.54
2023-05-20T13:53:25.513Z,62.14
2023-05-20T13:55:54.760Z,60.34
2023-05-20T13:58:22.587Z,60.62
2023-05-20T14:00:50.503Z,59.06
2023-05-20T14:03:18.480Z,60.19
2023-05-20T14:05:46.339Z,58.51
2023-05-20T14:08:14.304Z,58.65
2023-05-20T14:10:42.156Z,58.72
2023-05-20T14:13:11.454Z,56.82
2023-05-20T14:15:39.208Z,58.68
2023-05-20T14:18:08.004Z,58.36
2023-05-20T14:20:36.045Z,59.13
2023-05-20T14:23:04.466Z,59.62
2023-05-20T14:25:32.266Z,59.83
2023-05-20T14:27:59.960Z,59.30
2023-05-20T14:30:29.104Z,59.15
2023-05-20T14:32:57.397Z,59.84
2023-05-20T14:35:25.389Z,59.80
2023-05-20T14:37:54.019Z,59.83
2023-05-20T14:40:21.972Z,60.53
2023-05-20T14:42:49.881Z,59.01
2023-05-20T14:45:18.561Z,60.48
2023-05-20T14:47:47.823Z,60.80
2023-05-20T14:50:15.883Z,59.98
2023-05-20T14:52:43.860Z,61.73
2023-05-20T14:55:15.034Z,61.48
2023-05-20T14:57:43.414Z,61.98
2023-05-20T15:00:12.857Z,61.03
2023-05-20T15:02:40.959Z,62.30
2023-05-20T15:05:11.950Z,62.86
2023-05-20T15:07:39.857Z,63.13
2023-05-20T15:10:08.959Z,63.18
2023-05-20T15:12:36.941Z,63.74
2023-05-20T15:15:05.360Z,63.86
2023-05-20T15:17:33.146Z,64.00
2023-05-20T15:20:01.251Z,64.05
2023-05-20T15:22:30.888Z,65.00
2023-05-20T15:24:58.834Z,64.80
2023-05-20T15:27:26.656Z,64.55
2023-05-20T15:29:54.410Z,66.05
2023-05-20T15:32:22.618Z,65.27
2023-05-20T15:34:50.440Z,64.16
2023-05-20T15:37:18.282Z,63.89
2023-05-20T15:39:47.795Z,64.67
2023-05-20T15:42:18.244Z,64.79
2023-05-20T15:44:46.311Z,64.65
2023-05-20T15:47:14.242Z,64.28
2023-05-20T15:49:41.992Z,64.96
2023-05-20T15:52:09.927Z,65.25
2023-05-20T15:54:37.855Z,65.26
2023-05-20T15:57:07.392Z,65.52
2023-05-20T15:59:35.666Z,65.57
2023-05-20T16:02:03.805Z,65.44
2023-05-20T16:04:32.486Z,66.09
2023-05-20T16:07:00.954Z,67.18
2023-05-20T16:09:28.698Z,66.47
2023-05-20T16:11:57.091Z,67.92
2023-05-20T16:14:26.705Z,67.40
2023-05-20T16:16:54.565Z,68.19
2023-05-20T16:19:22.891Z,67.87
2023-05-20T16:21:50.794Z,66.89
2023-05-20T16:24:18.927Z,66.46
2023-05-20T16:26:47.130Z,66.60
2023-05-20T16:29:16.595Z,67.28
2023-05-20T16:31:47.147Z,68.08
2023-05-20T16:34:16.800Z,67.88
2023-05-20T16:36:46.460Z,69.09
2023-05-20T16:39:14.679Z,68.37
2023-05-20T16:41:42.430Z,69.48
2023-05-20T16:44:10.370Z,69.15
2023-05-20T16:46:38.445Z,70.16
2023-05-20T16:49:07.725Z,68.87
2023-05-20T16:51:35.891Z,69.14
2023-05-20T16:54:03.798Z,68.82
2023-05-20T16:56:31.714Z,69.16
2023-05-20T16:58:59.492Z,69.16
2023-05-20T17:01:29.135Z,69.07
2023-05-20T17:03:57.203Z,69.48
2023-05-20T17:06:26.365Z,69.42
2023-05-20T17:08:54.241Z,70.12
2023-05-20T17:11:22.564Z,70.18
2023-05-20T17:13:50.430Z,69.37
2023-05-20T17:16:18.768Z,69.72
2023-05-20T17:18:48.195Z,70.45
2023-05-20T17:21:20.260Z,71.18
2023-05-20T17:23:50.085Z,71.41
2023-05-20T17:26:18.062Z,70.67
2023-05-20T17:28:46.316Z,71.73
2023-05-20T17:31:14.149Z,71.04
2023-05-20T17:33:42.287Z,72.08
2023-05-20T17:36:10.467Z,72.11
2023-05-20T17:38:38.330Z,72.41
2023-05-20T17:41:07.377Z,72.23
2023-05-20T17:43:35.470Z,72.13
2023-05-20T17:46:03.304Z,72.36
2023-05-20T17:48:33.097Z,72.53
2023-05-20T17:51:00.924Z,72.51
2023-05-20T17:53:28.647Z,72.32
2023-05-20T17:55:56.496Z,72.18
2023-05-20T17:58:26.707Z,72.82
2023-05-20T18:00:54.983Z,73.08
2023-05-20T18:03:23.442Z,72.89
2023-05-20T18:05:52.277Z,73.32
2023-05-20T18:08:21.463Z,72.58
2023-05-20T18:10:49.446Z,72.34
2023-05-20T18:13:17.206Z,71.84
2023-05-20T18:15:47.021Z,73.11
2023-05-20T18:18:14.867Z,72.88
2023-05-20T18:20:42.789Z,72.54
2023-05-20T18:23:10.609Z,72.59
2023-05-20T18:25:39.514Z,73.58
2023-05-20T18:28:09.747Z,73.27
2023-05-20T18:30:38.038Z,73.92
2023-05-20T18:33:07.483Z,74.23
2023-05-20T18:35:36.191Z,74.46
2023-05-20T18:38:04.011Z,74.01
2023-05-20T18:40:31.998Z,74.65
2023-05-20T18:42:59.988Z,75.26
2023-05-20T18:45:30.183Z,74.12
2023-05-20T18:47:59.782Z,73.67
2023-05-20T18:50:29.040Z,74.55
2023-05-20T18:52:57.384Z,74.03
2023-05-20T18:55:25.972Z,75.40
2023-05-20T18:57:53.806Z,76.03
2023-05-20T19:00:21.782Z,76.17
2023-05-20T19:02:49.555Z,76.58
2023-05-20T19:05:17.597Z,76.39
2023-05-20T19:07:46.868Z,77.36
2023-05-20T19:10:15.170Z,76.96
2023-05-20T19:12:45.020Z,77.00
2023-05-20T19:15:14.585Z,76.99
2023-05-20T19:17:42.422Z,77.80
2023-05-20T19:20:11.213Z,77.59
2023-05-20T19:22:39.492Z,77.95
2023-05-20T19:25:09.364Z,77.74
2023-05-20T19:27:37.159Z,77.54
2023-05-20T19:30:05.189Z,78.25
2023-05-20T19:32:33.021Z,78.75
2023-05-20T19:35:01.281Z,78.73
2023-05-20T19:37:29.700Z,78.71
2023-05-20T19:39:58.054Z,79.20
2023-05-20T19:42:27.511Z,79.22
2023-05-20T19:44:55.692Z,78.01
2023-05-20T19:47:23.516Z,78.54
2023-05-20T19:49:51.553Z,79.23
2023-05-20T19:52:20.142Z,80.83
2023-05-20T19:54:48.483Z,80.39
2023-05-20T19:57:16.577Z,79.74
2023-05-20T19:59:46.421Z,80.59
2023-05-20T20:02:14.766Z,80.60
2023-05-20T20:04:44.590Z,81.47
2023-05-20T20:07:12.600Z,81.99
2023-05-20T20:09:40.797Z,80.93
2023-05-20T20:12:09.299Z,82.15
2023-05-20T20:14:37.035Z,83.25
2023-05-20T20:17:06.941Z,83.85
2023-05-20T20:19:34.859Z,83.04
2023-05-20T20:22:02.662Z,83.24
2023-05-20T20:24:30.532Z,83.20
2023-05-20T20:26:58.349Z,83.15
2023-05-20T20:29:26.288Z,83.30
2023-05-20T20:31:55.182Z,84.72
2023-05-20T20:34:24.500Z,85.72
2023-05-20T20:36:53.185Z,85.36
2023-05-20T20:39:22.659Z,85.88
2023-05-20T20:41:51.369Z,85.94
2023-05-20T20:44:22.382Z,86.58
2023-05-20T20:46:51.407Z,86.87
2023-05-20T20:49:19.689Z,87.70
2023-05-20T20:51:50.256Z,87.77
2023-05-20T20:54:17.995Z,87.31
2023-05-20T20:56:47.304Z,87.46
2023-05-20T20:59:16.042Z,87.51
2023-05-20T21:01:45.388Z,87.29
2023-05-20T21:04:14.331Z,87.81
2023-05-20T21:06:46.053Z,87.81
2023-05-20T21:09:16.167Z,88.22
2023-05-20T21:11:45.274Z,89.71
2023-05-20T21:14:14.002Z,90.06
2023-05-20T21:16:43.155Z,89.90
2023-05-20T21:19:11.045Z,89.85
2023-05-20T21:21:38.930Z,89.57
2023-05-20T21:24:07.549Z,91.21
2023-05-20T21:26:37.336Z,91.23
2023-05-20T21:29:06.051Z,91.44
2023-05-20T21:31:33.984Z,92.52
2023-05-20T21:34:01.808Z,91.51
2023-05-20T21:36:29.516Z,91.52
2023-05-20T21:38:58.495Z,91.25
2023-05-20T21:41:27.214Z,90.78
2023-05-20T21:43:56.372Z,92.00
2023-05-20T21:46:24.193Z,91.97
2023-05-20T21:48:51.986Z,91.84
2023-05-20T21:51:19.690Z,92.94
2023-05-20T21:53:47.455Z,91.99
2023-05-20T21:56:16.169Z,94.17
2023-05-20T21:58:44.128Z,94.12
2023-05-20T22:01:13.201Z,94.62
2023-05-20T22:03:41.218Z,94.84
2023-05-20T22:06:09.189Z,93.61
2023-05-20T22:08:37.328Z,94.47
2023-05-20T22:11:07.080Z,96.10
2023-05-20T22:13:35.808Z,94.67
2023-05-20T22:16:04.912Z,95.67
2023-05-20T22:18:34.961Z,95.03
2023-05-20T22:21:02.753Z,95.22
2023-05-20T22:23:30.579Z,96.15
2023-05-20T22:25:58.340Z,95.49
2023-05-20T22:28:26.252Z,96.77
2023-05-20T22:30:54.646Z,96.87
2023-05-20T22:33:24.401Z,96.62
2023-05-20T22:35:54.481Z,98.15
2023-05-20T22:38:22.266Z,96.54
2023-05-20T22:40:50.361Z,97.25
2023-05-20T22:43:18.165Z,99.11
2023-05-20T22:45:45.922Z,98.16
2023-05-20T22:48:13.758Z,98.61
2023-05-20T22:50:42.236Z,97.88
2023-05-20T22:53:11.531Z,98.64
2023-05-20T22:55:39.762Z,99.58
2023-05-20T22:58:08.563Z,100.00
2023-05-20T23:00:37.126Z,99.85
2023-05-20T23:03:04.983Z,100.00
2023-05-20T23:05:32.926Z,100.00
2023-05-20T23:08:01.378Z,99.14
2023-05-20T23:10:30.592Z,99.61
2023-05-20T23:12:58.653Z,100.00
2023-05-20T23:15:27.805Z,100.00
2023-05-20T23:17:55.693Z,100.00
2023-05-20T23:20:23.800Z,100.00
2023-05-20T23:22:51.776Z,100.00
2023-05-20T23:25:19.645Z,100.00
2023-05-20T23:27:48.822Z,100.00
2023-05-20T23:30:17.056Z,100.00
2023-05-20T23:32:45.563Z,100.00
2023-05-20T23:35:14.330Z,100.00
2023-05-20T23:37:42.501Z,100.00
2023-05-20T23:40:11.708Z,100.00
2023-05-20T23:42:40.076Z,100.00
2023-05-20T23:45:11.352Z,100.00
2023-05-20T23:47:39.225Z,100.00
2023-05-20T23:50:08.451Z,100.00
2023-05-20T23:52:37.071Z,100.00
2023-05-20T23:55:05.886Z,100.00
2023-05-20T23:57:33.966Z,100.00
